Terminal Aerodrome Forecast
Issued by NWS Rapid City, SD

Home | Current Version | Previous Version | Graphics & Text | Print | Product List | Glossary On
Versions: 1 2 3 4 5 6 7 8 9 10 11 12 13 14 15 16 17 18 19 20
023
FTUS43 KUNR 200520
TAFRAP
TAF
KRAP 200520Z 2006/2106 15009KT P6SM BKN150
     FM201400 15015G25KT P6SM SCT020 BKN100
     FM201900 16018G28KT P6SM -SHRA BKN015=

USA.gov is the U.S. government's official web portal to all federal, state and local government web resources and services.